M I D A S
Marine Information and Data Acquisition System
Tripno 1269 of the Zeeleeuw from 2007-05-08 12:31:52 to 2007-05-08 13:35:23
Back to CruiseResearch ActivitiesStationsMapUnderway DataData graphs

EquipmentUnitsComment
TimeDGPSUTC
LatitudeDGPSDM.mWGS84
LongitudeDGPSDM.mWGS84
HeadingGyrodeg 
SOGDGPSknotsSpeed over ground
COGDGPSdegCourse over ground
DepthEcho soundermeters200 kHz
Missing or incorrect values are displayed as -999
Navigation data collected by the RV Zeeleeuw from 2007-05-08 07:31:53 to 2007-05-08 13:50:53
                                                                                    Next 1000 lines
Time Latitude Longitude Heading SOG COG Depth
2007-05-08 07:32:03 51°13.714 2°55.752 352 3 343 12.2
2007-05-08 07:32:08 51°13.718 2°55.75 346.9 3.4 337 12.3
2007-05-08 07:32:13 51°13.724 2°55.746 342.1 4 334 12.3
2007-05-08 07:32:18 51°13.73 2°55.741 337.7 4.7 328 11.9
2007-05-08 07:32:23 51°13.736 2°55.734 333.5 5.5 328 11.8
2007-05-08 07:32:28 51°13.743 2°55.727 330.9 6 325 11.4
2007-05-08 07:32:33 51°13.751 2°55.718 329.2 6.5 326 11.1
2007-05-08 07:32:38 51°13.758 2°55.709 328.4 7 324 11.1
2007-05-08 07:32:43 51°13.767 2°55.7 328.3 7.4 325 11
2007-05-08 07:32:48 51°13.776 2°55.69 328.5 7.8 325 10.8
2007-05-08 07:32:53 51°13.786 2°55.68 328.7 8.1 325 10.8
2007-05-08 07:32:58 51°13.795 2°55.67 329.2 8.3 326 10.8
2007-05-08 07:33:03 51°13.805 2°55.659 329.5 8.5 327 10.7
2007-05-08 07:33:08 51°13.815 2°55.649 330.6 8.7 329 10.5
2007-05-08 07:33:13 51°13.826 2°55.639 332.9 8.9 331 10.7
2007-05-08 07:33:18 51°13.837 2°55.629 334.4 9.1 331 10.9
2007-05-08 07:33:23 51°13.848 2°55.62 335 9.2 332 10.8
2007-05-08 07:33:28 51°13.86 2°55.611 336.7 9.3 334 10.8
2007-05-08 07:33:33 51°13.872 2°55.602 339 9.4 336 10.9
2007-05-08 07:33:38 51°13.884 2°55.593 339.7 9.5 335 10.7
2007-05-08 07:33:43 51°13.896 2°55.585 339.6 9.6 338 10.8
2007-05-08 07:33:48 51°13.908 2°55.576 341.2 9.7 338 10.8
2007-05-08 07:33:53 51°13.92 2°55.569 342.9 9.7 338 10.9
2007-05-08 07:33:58 51°13.933 2°55.561 343.2 9.8 337 10.9
2007-05-08 07:34:03 51°13.946 2°55.553 342.5 9.8 338 11.1
2007-05-08 07:34:08 51°13.958 2°55.544 342.5 9.9 338 11.1
2007-05-08 07:34:13 51°13.971 2°55.537 342.5 9.8 339 11
2007-05-08 07:34:18 51°13.984 2°55.529 342.7 9.9 339 11.1
2007-05-08 07:34:23 51°13.997 2°55.521 343.2 9.8 339 11.1
2007-05-08 07:34:28 51°14.01 2°55.514 343.6 9.9 339 11.1
2007-05-08 07:34:33 51°14.022 2°55.506 343.5 9.8 338 11.1
2007-05-08 07:34:38 51°14.035 2°55.497 342.9 9.8 339 11.2
2007-05-08 07:34:43 51°14.048 2°55.49 342.7 9.8 338 11.4
2007-05-08 07:34:48 51°14.061 2°55.482 342.7 9.9 338 11.4
2007-05-08 07:34:53 51°14.074 2°55.474 343.1 9.9 338 11.5
2007-05-08 07:34:58 51°14.086 2°55.466 343.2 9.9 339 11.6
2007-05-08 07:35:03 51°14.099 2°55.458 343 9.9 337 -999
2007-05-08 07:35:08 51°14.111 2°55.449 342.5 9.9 337 11.6
2007-05-08 07:35:13 51°14.123 2°55.439 341.8 9.8 336 11.6
2007-05-08 07:35:18 51°14.136 2°55.43 340.7 9.9 335 11.6
2007-05-08 07:35:23 51°14.148 2°55.419 339.5 10.1 334 11.6
2007-05-08 07:35:28 51°14.161 2°55.409 338.1 10.2 333 -999
2007-05-08 07:35:33 51°14.173 2°55.398 337.2 10.4 331 11.7
2007-05-08 07:35:38 51°14.185 2°55.386 335.2 10.4 328 -999
2007-05-08 07:35:43 51°14.197 2°55.372 331.8 10.5 326 11.7
2007-05-08 07:35:48 51°14.209 2°55.358 328.6 10.6 322 11.8
2007-05-08 07:35:53 51°14.221 2°55.342 327 10.8 321 11.8
2007-05-08 07:35:58 51°14.232 2°55.327 325.3 10.9 320 11.7
2007-05-08 07:36:03 51°14.244 2°55.311 324.8 11.1 319 11.7
2007-05-08 07:36:08 51°14.256 2°55.294 324.2 11.2 318 11.7
2007-05-08 07:36:13 51°14.267 2°55.276 322.9 11.3 315 11.7
2007-05-08 07:36:18 51°14.277 2°55.258 320.5 11.4 313 11.6
2007-05-08 07:36:23 51°14.288 2°55.238 318.5 11.5 310 11.6
2007-05-08 07:36:28 51°14.298 2°55.218 315.1 11.6 308 11.6
2007-05-08 07:36:33 51°14.307 2°55.198 312.7 11.6 308 11.5
2007-05-08 07:36:38 51°14.317 2°55.177 311.8 11.5 306 11.6
2007-05-08 07:36:43 51°14.326 2°55.156 311.1 11.7 306 11.6
2007-05-08 07:36:48 51°14.336 2°55.134 310.2 11.9 305 11.6
2007-05-08 07:36:53 51°14.345 2°55.113 309.7 12 305 11.7
2007-05-08 07:36:58 51°14.355 2°55.091 309 12.1 305 11.6
2007-05-08 07:37:03 51°14.364 2°55.069 308.5 12.1 305 11.7
2007-05-08 07:37:08 51°14.374 2°55.047 308.3 12.2 305 11.7
2007-05-08 07:37:13 51°14.383 2°55.025 307.9 12.1 305 11.1
2007-05-08 07:37:18 51°14.393 2°55.002 308.3 12.2 305 11.3
2007-05-08 07:37:23 51°14.403 2°54.98 308.3 12.3 305 11.2
2007-05-08 07:37:28 51°14.413 2°54.958 308.6 12.3 305 11.1
2007-05-08 07:37:33 51°14.422 2°54.935 308.4 12.4 304 11.3
2007-05-08 07:37:38 51°14.432 2°54.912 307.7 12.6 303 11.2
2007-05-08 07:37:43 51°14.441 2°54.888 307.1 12.8 303 11.3
2007-05-08 07:37:48 51°14.451 2°54.864 307 12.8 302 11
2007-05-08 07:37:53 51°14.461 2°54.84 306.8 12.9 304 11.3
2007-05-08 07:37:58 51°14.471 2°54.816 307 13 303 11.2
2007-05-08 07:38:03 51°14.481 2°54.792 307.4 13.1 303 11.2
2007-05-08 07:38:08 51°14.491 2°54.767 307.7 13.2 302 11
2007-05-08 07:38:13 51°14.501 2°54.742 307.5 13.2 302 11.1
2007-05-08 07:38:18 51°14.51 2°54.717 306.3 13.2 300 11.1
2007-05-08 07:38:23 51°14.519 2°54.692 305.3 13.1 300 10.4
2007-05-08 07:38:28 51°14.526 2°54.666 304.4 13.1 295 10.5
2007-05-08 07:38:33 51°14.534 2°54.639 301.3 13.1 295 10.5
2007-05-08 07:38:38 51°14.541 2°54.612 299.4 13.1 292 10.8
2007-05-08 07:38:43 51°14.547 2°54.585 297.1 13.1 292 10.5
2007-05-08 07:38:48 51°14.553 2°54.558 295.7 13.1 290 10.5
2007-05-08 07:38:53 51°14.56 2°54.531 294.9 13.2 290 10.8
2007-05-08 07:38:58 51°14.566 2°54.503 293.9 13.2 289 11
2007-05-08 07:39:03 51°14.572 2°54.475 293.3 13.3 289 11
2007-05-08 07:39:08 51°14.577 2°54.448 292.6 13.2 288 11
2007-05-08 07:39:13 51°14.583 2°54.419 291.9 13.3 287 11.3
2007-05-08 07:39:18 51°14.588 2°54.391 291.1 13.2 286 11.2
2007-05-08 07:39:23 51°14.593 2°54.363 290.3 13.2 286 11.3
2007-05-08 07:39:28 51°14.598 2°54.335 289.5 13.2 285 11.2
2007-05-08 07:39:33 51°14.602 2°54.307 289 13.2 285 11.2
2007-05-08 07:39:38 51°14.607 2°54.279 288.8 13.2 285 11.2
2007-05-08 07:39:43 51°14.612 2°54.251 288.7 13.2 285 11.3
2007-05-08 07:39:48 51°14.617 2°54.223 288.8 13.1 285 11.1
2007-05-08 07:39:53 51°14.622 2°54.195 289 13.2 285 11.3
2007-05-08 07:39:58 51°14.626 2°54.167 288.9 13.1 285 11.2
2007-05-08 07:40:03 51°14.631 2°54.139 288.9 13.1 285 11.3
2007-05-08 07:40:08 51°14.635 2°54.111 288.8 13 284 11.3
2007-05-08 07:40:13 51°14.638 2°54.082 288.3 13.1 281 11.3
2007-05-08 07:40:18 51°14.642 2°54.054 285.6 13 281 11.1
2007-05-08 07:40:23 51°14.644 2°54.026 284.8 13 278 11.3
2007-05-08 07:40:28 51°14.647 2°53.997 283.2 13.1 278 11.8
2007-05-08 07:40:33 51°14.649 2°53.969 282.1 13.1 277 11.5
2007-05-08 07:40:38 51°14.651 2°53.94 281.6 13 277 11.2
2007-05-08 07:40:43 51°14.653 2°53.912 280.9 13 277 11.6
2007-05-08 07:40:48 51°14.656 2°53.884 280.5 13.1 278 11.6
2007-05-08 07:40:53 51°14.658 2°53.856 280.5 12.9 277 11.4
2007-05-08 07:40:58 51°14.66 2°53.828 280.6 12.9 277 11.4
2007-05-08 07:41:03 51°14.662 2°53.799 280.7 12.9 277 11.4
2007-05-08 07:41:08 51°14.664 2°53.771 280.5 12.9 277 11.1
2007-05-08 07:41:13 51°14.666 2°53.742 280.7 12.9 276 10.6
2007-05-08 07:41:18 51°14.668 2°53.714 280.4 12.8 276 10.7
2007-05-08 07:41:23 51°14.67 2°53.685 279.8 12.9 276 11
2007-05-08 07:41:28 51°14.671 2°53.657 279.4 13 275 10.5
2007-05-08 07:41:33 51°14.673 2°53.628 279.4 12.9 275 10.4
2007-05-08 07:41:38 51°14.675 2°53.6 278.6 13 276 10.5
2007-05-08 07:41:43 51°14.676 2°53.571 278.7 13 275 10.2
2007-05-08 07:41:48 51°14.679 2°53.543 279.1 12.9 276 9.7
2007-05-08 07:41:53 51°14.681 2°53.515 279.4 12.8 277 9.2
2007-05-08 07:41:58 51°14.683 2°53.487 279.9 12.8 277 9.7
2007-05-08 07:42:03 51°14.685 2°53.459 280.1 12.8 276 9.2
2007-05-08 07:42:08 51°14.686 2°53.431 279.9 12.6 275 9.2
2007-05-08 07:42:13 51°14.688 2°53.403 279.5 12.7 276 9.3
2007-05-08 07:42:18 51°14.691 2°53.375 279.4 12.7 276 9.3
2007-05-08 07:42:23 51°14.692 2°53.346 279.5 12.8 276 9.3
2007-05-08 07:42:28 51°14.694 2°53.318 279.4 12.8 277 9.4
2007-05-08 07:42:33 51°14.696 2°53.29 279.3 12.7 275 9.4
2007-05-08 07:42:38 51°14.696 2°53.262 279.4 12.7 273 9.4
2007-05-08 07:42:43 51°14.696 2°53.234 277.4 12.8 268 9.2
2007-05-08 07:42:48 51°14.695 2°53.206 273.6 12.7 267 9.2
2007-05-08 07:42:53 51°14.694 2°53.178 271.4 12.8 264 9.3
2007-05-08 07:42:58 51°14.691 2°53.15 268.9 12.8 264 9.2
2007-05-08 07:43:03 51°14.689 2°53.121 267.4 12.9 262 9.2
2007-05-08 07:43:08 51°14.686 2°53.093 266.2 12.9 262 9
2007-05-08 07:43:13 51°14.684 2°53.065 265.5 13 262 9.3
2007-05-08 07:43:18 51°14.682 2°53.037 265.2 12.9 264 9.2
2007-05-08 07:43:23 51°14.68 2°53.008 266.2 13 264 9.2
2007-05-08 07:43:28 51°14.679 2°52.98 267.3 12.9 265 9.2
2007-05-08 07:43:33 51°14.677 2°52.951 268.2 13 265 9.3
2007-05-08 07:43:38 51°14.676 2°52.923 268.9 13 267 9.3
2007-05-08 07:43:43 51°14.675 2°52.894 269.6 13 266 9.1
2007-05-08 07:43:48 51°14.674 2°52.866 269.7 12.9 267 9
2007-05-08 07:43:53 51°14.673 2°52.837 270 12.9 267 9.4
2007-05-08 07:43:58 51°14.672 2°52.809 270.4 13 266 9.1
2007-05-08 07:44:03 51°14.671 2°52.78 269.8 13 266 9.2
2007-05-08 07:44:08 51°14.67 2°52.752 270 12.9 266 9.2
2007-05-08 07:44:13 51°14.669 2°52.723 270 12.9 265 9.3
2007-05-08 07:44:18 51°14.667 2°52.695 269.4 12.9 266 9.3
2007-05-08 07:44:23 51°14.666 2°52.667 269.2 12.8 266 9.3
2007-05-08 07:44:28 51°14.666 2°52.638 269.8 12.9 267 9.4
2007-05-08 07:44:33 51°14.665 2°52.61 270.2 12.9 267 9.6
2007-05-08 07:44:38 51°14.663 2°52.581 270.7 12.9 266 9.5
2007-05-08 07:44:43 51°14.662 2°52.553 270.4 12.8 267 9.3
2007-05-08 07:44:48 51°14.661 2°52.525 270.1 12.9 265 9.4
2007-05-08 07:44:53 51°14.661 2°52.496 269.7 13 268 9.4
2007-05-08 07:44:58 51°14.659 2°52.468 270.1 12.9 267 9.4
2007-05-08 07:45:03 51°14.658 2°52.439 270.2 12.9 267 9.5
2007-05-08 07:45:08 51°14.657 2°52.411 270.4 12.9 267 9.3
2007-05-08 07:45:13 51°14.656 2°52.382 270.4 12.9 267 9.8
2007-05-08 07:45:18 51°14.655 2°52.354 270.6 12.8 267 9.4
2007-05-08 07:45:23 51°14.654 2°52.326 270.3 12.9 267 9.7
2007-05-08 07:45:28 51°14.653 2°52.298 270.4 12.8 267 9.3
2007-05-08 07:45:33 51°14.652 2°52.27 270.4 12.8 267 9.5
2007-05-08 07:45:38 51°14.652 2°52.242 270.6 12.9 268 9.8
2007-05-08 07:45:43 51°14.651 2°52.213 270.7 13 267 9.6
2007-05-08 07:45:48 51°14.65 2°52.184 271.1 12.9 267 9.6
2007-05-08 07:45:53 51°14.649 2°52.157 270.8 12.4 268 9.7
2007-05-08 07:45:58 51°14.648 2°52.131 270.9 11.7 267 9.7
2007-05-08 07:46:03 51°14.648 2°52.107 270.9 11.1 267 9.5
2007-05-08 07:46:08 51°14.647 2°52.085 270.8 10.4 267 9.4
2007-05-08 07:46:13 51°14.646 2°52.064 270.3 9.5 266 9.8
2007-05-08 07:46:18 51°14.645 2°52.045 270.3 8.6 263 9.8
2007-05-08 07:46:23 51°14.642 2°52.028 268.5 8.1 257 9.8
2007-05-08 07:46:28 51°14.638 2°52.013 262.4 7.2 245 10.1
2007-05-08 07:46:33 51°14.633 2°52.002 254.7 6.5 237 9.8
2007-05-08 07:46:38 51°14.628 2°51.993 246.4 5.5 231 9.7
2007-05-08 07:46:43 51°14.624 2°51.985 238.4 4.8 229 9.8
2007-05-08 07:46:48 51°14.619 2°51.979 233.9 4.4 223 10
2007-05-08 07:46:53 51°14.615 2°51.973 230.7 3.9 224 9.7
2007-05-08 07:46:58 51°14.612 2°51.968 228.3 3.3 222 9.7
2007-05-08 07:47:03 51°14.609 2°51.965 226.4 2.7 218 9.9
2007-05-08 07:47:08 51°14.606 2°51.963 225 2.5 209 9.8
2007-05-08 07:47:13 51°14.603 2°51.961 223.2 2.4 208 10.2
2007-05-08 07:47:18 51°14.6 2°51.959 221.3 2.3 205 10.1
2007-05-08 07:47:23 51°14.597 2°51.957 219.4 2.1 204 10.1
2007-05-08 07:47:28 51°14.595 2°51.957 217.7 2 195 9.8
2007-05-08 07:47:33 51°14.592 2°51.956 216.1 2 185 9.8
2007-05-08 07:47:38 51°14.59 2°51.956 214 1.7 188 9.4
2007-05-08 07:47:43 51°14.588 2°51.956 211.5 1.5 179 9.4
2007-05-08 07:47:48 51°14.586 2°51.956 209 1.4 180 9.4
2007-05-08 07:47:53 51°14.585 2°51.955 207.9 1.3 186 9.6
2007-05-08 07:47:58 51°14.583 2°51.955 207.2 1.3 178 9.8
2007-05-08 07:48:03 51°14.582 2°51.955 206.8 1.1 183 10.1
2007-05-08 07:48:08 51°14.58 2°51.955 206.4 1 179 10.2
2007-05-08 07:48:13 51°14.578 2°51.955 206.1 1.1 169 10.2
2007-05-08 07:48:18 51°14.577 2°51.955 205.7 0.9 178 10.1
2007-05-08 07:48:23 51°14.576 2°51.956 205.4 1.1 156 9.9
2007-05-08 07:48:28 51°14.574 2°51.957 205 0.8 162 9.9
2007-05-08 07:48:33 51°14.573 2°51.957 205.3 0.7 170 10
2007-05-08 07:48:38 51°14.572 2°51.958 205.3 0.8 152 10
2007-05-08 07:48:43 51°14.571 2°51.96 205.3 1.3 128 10
2007-05-08 07:48:48 51°14.571 2°51.961 204.3 1 130 9.8
2007-05-08 07:48:53 51°14.57 2°51.962 202.7 0.8 136 9.5
2007-05-08 07:48:58 51°14.569 2°51.962 201.2 0.6 139 9.2
2007-05-08 07:49:03 51°14.569 2°51.963 200 0.6 129 9.3
2007-05-08 07:49:08 51°14.568 2°51.964 199.4 0.7 128 9.6
2007-05-08 07:49:13 51°14.568 2°51.965 198.1 0.6 132 9.9
2007-05-08 07:49:18 51°14.567 2°51.967 197.4 0.6 117 10.1
2007-05-08 07:49:23 51°14.567 2°51.968 196.6 0.6 131 10.2
2007-05-08 07:49:28 51°14.566 2°51.97 195.4 0.8 114 10
2007-05-08 07:49:33 51°14.566 2°51.972 193.7 0.9 99 10
2007-05-08 07:49:38 51°14.566 2°51.973 192.3 0.8 101 10.1
2007-05-08 07:49:43 51°14.565 2°51.975 190.5 0.8 102 10
2007-05-08 07:49:48 51°14.565 2°51.976 188.7 0.6 118 9.8
2007-05-08 07:49:53 51°14.565 2°51.978 187.1 0.8 111 9.7
2007-05-08 07:49:58 51°14.565 2°51.979 185.6 0.5 114 9.7
2007-05-08 07:50:03 51°14.564 2°51.98 184.4 0.7 103 9.8
2007-05-08 07:50:08 51°14.564 2°51.982 182.8 0.7 104 9.7
2007-05-08 07:50:13 51°14.564 2°51.983 180.9 0.8 95 9.8
2007-05-08 07:50:18 51°14.564 2°51.984 180.2 0.5 103 10.1
2007-05-08 07:50:23 51°14.564 2°51.986 179.5 0.5 106 10.1
2007-05-08 07:50:28 51°14.564 2°51.987 177.9 0.7 93 10.1
2007-05-08 07:50:33 51°14.564 2°51.989 175.9 0.9 90 9.9
2007-05-08 07:50:38 51°14.564 2°51.99 174.8 0.7 96 9.9
2007-05-08 07:50:43 51°14.563 2°51.992 174.1 0.7 92 10
2007-05-08 07:50:48 51°14.563 2°51.993 173.6 0.7 99 10
2007-05-08 07:50:53 51°14.563 2°51.995 172.3 0.8 105 9.8
2007-05-08 07:50:58 51°14.562 2°51.997 171.1 1 110 9.7
2007-05-08 07:51:03 51°14.561 2°51.999 169.8 1.1 115 9.8
2007-05-08 07:51:08 51°14.56 2°52 169.8 1 131 9.9
2007-05-08 07:51:13 51°14.559 2°52.002 169.8 1.3 143 9.9
2007-05-08 07:51:18 51°14.557 2°52.004 169.1 1.5 144 9.7
2007-05-08 07:51:23 51°14.555 2°52.005 169.6 1.9 152 9.8
2007-05-08 07:51:28 51°14.552 2°52.007 171.2 2 153 9.9
2007-05-08 07:51:33 51°14.549 2°52.009 173.3 2.4 159 9.9
2007-05-08 07:51:38 51°14.545 2°52.01 175.6 2.6 166 9.7
2007-05-08 07:51:43 51°14.541 2°52.012 177.6 3 169 9.6
2007-05-08 07:51:48 51°14.537 2°52.014 179.6 3.4 168 9.7
2007-05-08 07:51:53 51°14.531 2°52.013 181.6 3.7 180 9.4
2007-05-08 07:51:58 51°14.526 2°52.014 185.4 4.1 177 9.3
2007-05-08 07:52:03 51°14.52 2°52.012 188.6 4.2 188 9.5
2007-05-08 07:52:08 51°14.514 2°52.01 192.6 4.5 191 9.8
2007-05-08 07:52:13 51°14.507 2°52.007 196.6 4.7 199 9.7
2007-05-08 07:52:18 51°14.501 2°52.003 200.5 5 199 9.5
2007-05-08 07:52:23 51°14.494 2°51.999 204.9 5 205 9.4
2007-05-08 07:52:28 51°14.488 2°51.993 209.7 5.1 208 9.8
2007-05-08 07:52:33 51°14.482 2°51.986 213.4 5.2 215 9.7
2007-05-08 07:52:38 51°14.477 2°51.979 217.1 5.3 217 9.4
2007-05-08 07:52:43 51°14.471 2°51.972 222.2 5 224 9.3
2007-05-08 07:52:48 51°14.467 2°51.964 226.9 4.9 227 9.4
2007-05-08 07:52:53 51°14.463 2°51.956 230.6 4.7 228 9.2
2007-05-08 07:52:58 51°14.459 2°51.949 234.7 4.3 234 9.3
2007-05-08 07:53:03 51°14.456 2°51.941 238.8 4.1 238 9.3
2007-05-08 07:53:08 51°14.454 2°51.934 241.6 3.8 240 9.2
2007-05-08 07:53:13 51°14.452 2°51.927 245.3 3.6 244 9.3
2007-05-08 07:53:18 51°14.45 2°51.92 247.5 3.4 243 9.3
2007-05-08 07:53:23 51°14.448 2°51.914 249.9 3.2 246 9.4
2007-05-08 07:53:28 51°14.446 2°51.908 251.8 3.1 249 9.4
2007-05-08 07:53:33 51°14.445 2°51.902 252.9 2.9 248 9.4
2007-05-08 07:53:38 51°14.444 2°51.896 255 2.8 251 9.4
2007-05-08 07:53:43 51°14.443 2°51.891 256.1 2.6 254 9.2
2007-05-08 07:53:48 51°14.442 2°51.886 257.3 2.5 254 9.3
2007-05-08 07:53:53 51°14.441 2°51.88 258.9 2.5 256 9.3
2007-05-08 07:53:58 51°14.441 2°51.875 260.1 2.4 258 9.3
2007-05-08 07:54:03 51°14.44 2°51.87 260.9 2.3 261 9.4
2007-05-08 07:54:08 51°14.44 2°51.865 262.1 2.2 262 9.3
2007-05-08 07:54:13 51°14.44 2°51.861 263.4 2.1 266 9.4
2007-05-08 07:54:18 51°14.439 2°51.857 264.7 1.9 262 9.2
2007-05-08 07:54:23 51°14.439 2°51.853 266.1 1.9 268 9.2
2007-05-08 07:54:28 51°14.439 2°51.849 267.1 1.8 267 9.2
2007-05-08 07:54:33 51°14.439 2°51.845 267.7 1.8 274 9.2
2007-05-08 07:54:38 51°14.439 2°51.841 268.7 1.7 266 9
2007-05-08 07:54:43 51°14.439 2°51.837 269.7 1.7 275 9.2
2007-05-08 07:54:48 51°14.439 2°51.834 270 1.7 269 9.2
2007-05-08 07:54:53 51°14.44 2°51.83 270.4 1.6 276 9.1
2007-05-08 07:54:58 51°14.44 2°51.827 270.7 1.6 271 9.3
2007-05-08 07:55:03 51°14.44 2°51.823 270.7 1.5 273 9.3
2007-05-08 07:55:08 51°14.44 2°51.821 271.3 1.3 260 9
2007-05-08 07:55:13 51°14.44 2°51.819 270.9 1.1 268 9.1
2007-05-08 07:55:18 51°14.44 2°51.816 269.9 1.1 268 9.5
2007-05-08 07:55:23 51°14.44 2°51.813 268.8 1.4 271 9.3
2007-05-08 07:55:28 51°14.439 2°51.809 268.9 1.5 266 9.4
2007-05-08 07:55:33 51°14.439 2°51.805 268.2 1.8 267 9.2
2007-05-08 07:55:38 51°14.439 2°51.8 267.6 2.2 262 9.1
2007-05-08 07:55:43 51°14.438 2°51.794 266.5 2.5 262 9.3
2007-05-08 07:55:48 51°14.438 2°51.788 264.9 2.8 261 9.4
2007-05-08 07:55:53 51°14.437 2°51.781 262.8 3.2 259 9.3
2007-05-08 07:55:58 51°14.436 2°51.773 261.9 3.3 260 9.4
2007-05-08 07:56:03 51°14.435 2°51.766 261.7 3.2 260 9.4
2007-05-08 07:56:08 51°14.435 2°51.759 262.7 3.1 263 9.1
2007-05-08 07:56:13 51°14.434 2°51.753 263.7 3 263 9.1
2007-05-08 07:56:18 51°14.434 2°51.747 265.3 2.7 262 9.2
2007-05-08 07:56:23 51°14.433 2°51.741 266.8 2.6 265 9.4
2007-05-08 07:56:28 51°14.433 2°51.735 267.8 2.6 262 9.3
2007-05-08 07:56:33 51°14.433 2°51.729 268.3 2.8 267 9.3
2007-05-08 07:56:38 51°14.432 2°51.723 268.8 2.9 264 9.1
2007-05-08 07:56:43 51°14.432 2°51.716 270.1 3 270 9.4
2007-05-08 07:56:48 51°14.432 2°51.709 271.3 3.2 272 9.4
2007-05-08 07:56:53 51°14.433 2°51.702 273 3.3 275 9.4
2007-05-08 07:56:58 51°14.433 2°51.695 275.3 3.4 277 9.5
2007-05-08 07:57:03 51°14.434 2°51.687 277.2 3.6 279 9.3
2007-05-08 07:57:08 51°14.435 2°51.679 278.8 3.7 280 9.2
2007-05-08 07:57:13 51°14.436 2°51.671 279.9 3.8 280 9.2
2007-05-08 07:57:18 51°14.437 2°51.662 280.6 3.8 281 9.4
2007-05-08 07:57:23 51°14.438 2°51.654 280.8 3.8 279 9.4
2007-05-08 07:57:28 51°14.439 2°51.646 280.8 3.7 278 9.4
2007-05-08 07:57:33 51°14.439 2°51.638 279.2 3.6 277 9.3
2007-05-08 07:57:38 51°14.44 2°51.63 277.8 3.5 276 9.4
2007-05-08 07:57:43 51°14.44 2°51.623 276.5 3.2 273 9.2
2007-05-08 07:57:48 51°14.44 2°51.616 275.4 3 274 9.6
2007-05-08 07:57:53 51°14.44 2°51.61 273.5 2.8 271 9.5
2007-05-08 07:57:58 51°14.441 2°51.603 271.8 2.8 271 9.4
2007-05-08 07:58:03 51°14.44 2°51.597 270.6 2.8 268 9.1
2007-05-08 07:58:08 51°14.44 2°51.591 269 2.8 264 9.1
2007-05-08 07:58:13 51°14.439 2°51.585 267.3 2.8 262 9.2
2007-05-08 07:58:18 51°14.439 2°51.579 265.1 2.9 262 9.2
2007-05-08 07:58:23 51°14.438 2°51.573 262.9 3.1 258 9.3
2007-05-08 07:58:28 51°14.437 2°51.566 260.5 3.2 258 9.3
2007-05-08 07:58:33 51°14.436 2°51.558 259 3.4 255 9.6
2007-05-08 07:58:38 51°14.434 2°51.551 256.4 3.5 253 9.5
2007-05-08 07:58:43 51°14.432 2°51.543 255.2 3.6 249 9.4
2007-05-08 07:58:48 51°14.43 2°51.536 252.9 3.6 246 9.2
2007-05-08 07:58:53 51°14.428 2°51.529 250.4 3.7 243 9.4
2007-05-08 07:58:58 51°14.426 2°51.522 248.2 3.7 242 9.3
2007-05-08 07:59:03 51°14.423 2°51.515 246.7 3.6 238 9.5
2007-05-08 07:59:08 51°14.42 2°51.508 246.1 3.7 236 9.3
2007-05-08 07:59:13 51°14.417 2°51.501 244.8 3.7 236 9.2
2007-05-08 07:59:18 51°14.415 2°51.495 243.8 3.6 238 9
2007-05-08 07:59:23 51°14.413 2°51.487 245.2 3.7 241 9.2
2007-05-08 07:59:28 51°14.411 2°51.48 247.5 3.5 244 9.3
2007-05-08 07:59:33 51°14.409 2°51.473 249.6 3.5 245 9.1
2007-05-08 07:59:38 51°14.407 2°51.466 252.5 3.5 249 9
2007-05-08 07:59:43 51°14.406 2°51.459 254.7 3.5 252 9.3
2007-05-08 07:59:48 51°14.405 2°51.451 257.5 3.5 255 9.3
2007-05-08 07:59:53 51°14.404 2°51.443 260.1 3.6 256 9.4
2007-05-08 07:59:58 51°14.403 2°51.435 262 3.6 259 9.4
2007-05-08 08:00:03 51°14.402 2°51.427 263.9 3.6 261 9.6
2007-05-08 08:00:08 51°14.402 2°51.419 265.6 3.6 265 9.4
2007-05-08 08:00:13 51°14.401 2°51.411 267.1 3.6 263 9.4
2007-05-08 08:00:18 51°14.401 2°51.403 268.5 3.7 267 9.2
2007-05-08 08:00:23 51°14.401 2°51.395 269.3 3.7 266 9.2
2007-05-08 08:00:28 51°14.401 2°51.387 269.7 3.8 265 9.2
2007-05-08 08:00:33 51°14.4 2°51.379 269.7 3.7 265 9.2
2007-05-08 08:00:38 51°14.4 2°51.371 269 3.8 266 9.3
2007-05-08 08:00:43 51°14.399 2°51.362 267.9 3.9 262 9.3
2007-05-08 08:00:48 51°14.399 2°51.354 267 3.9 263 9.3
2007-05-08 08:00:53 51°14.397 2°51.345 265.8 3.9 259 9.5
2007-05-08 08:00:58 51°14.396 2°51.337 263.7 3.7 257 9.1
2007-05-08 08:01:03 51°14.395 2°51.33 261.4 3.7 257 9.2
2007-05-08 08:01:08 51°14.394 2°51.321 258.9 3.8 254 9.1
2007-05-08 08:01:13 51°14.392 2°51.314 256.6 3.8 252 9.2
2007-05-08 08:01:18 51°14.391 2°51.306 254.3 3.7 249 9.3
2007-05-08 08:01:23 51°14.388 2°51.299 252.3 3.6 243 9.5
2007-05-08 08:01:28 51°14.386 2°51.292 249.4 3.6 244 9.5
2007-05-08 08:01:33 51°14.383 2°51.285 246.7 3.6 243 9.4
2007-05-08 08:01:38 51°14.38 2°51.278 245.3 3.7 241 9.4
2007-05-08 08:01:43 51°14.378 2°51.27 244.5 3.7 240 9.4
2007-05-08 08:01:48 51°14.375 2°51.263 244.5 3.7 240 9.2
2007-05-08 08:01:53 51°14.372 2°51.257 245 3.6 240 9.3
2007-05-08 08:01:58 51°14.37 2°51.25 245.2 3.6 239 9.1
2007-05-08 08:02:03 51°14.368 2°51.243 246.6 3.6 242 9.1
2007-05-08 08:02:08 51°14.365 2°51.236 247.6 3.6 243 9.5
2007-05-08 08:02:13 51°14.363 2°51.229 249.2 3.7 246 9.3
2007-05-08 08:02:18 51°14.361 2°51.221 251 3.7 247 9.4
2007-05-08 08:02:23 51°14.359 2°51.213 252.9 3.7 248 9.4
2007-05-08 08:02:28 51°14.357 2°51.206 254.3 3.7 250 9.3
2007-05-08 08:02:33 51°14.356 2°51.198 255.5 3.8 255 9.4
2007-05-08 08:02:38 51°14.355 2°51.19 257 3.8 255 9.3
2007-05-08 08:02:43 51°14.353 2°51.181 259.5 4 257 9.3
2007-05-08 08:02:48 51°14.352 2°51.173 261.4 4 260 9.1
2007-05-08 08:02:53 51°14.352 2°51.164 262.8 4 263 9.4
2007-05-08 08:02:58 51°14.352 2°51.155 264.8 3.9 266 9.3
2007-05-08 08:03:03 51°14.351 2°51.147 266.6 3.9 265 9.4
2007-05-08 08:03:08 51°14.351 2°51.138 268.6 3.9 269 9.2
2007-05-08 08:03:13 51°14.351 2°51.13 270 3.8 269 9.3
2007-05-08 08:03:18 51°14.351 2°51.121 271 3.8 270 9.3
2007-05-08 08:03:23 51°14.351 2°51.113 271.8 3.8 270 9.3
2007-05-08 08:03:28 51°14.351 2°51.105 272.1 3.8 272 9.4
2007-05-08 08:03:33 51°14.351 2°51.096 272.1 3.8 271 9.4
2007-05-08 08:03:38 51°14.351 2°51.088 271.8 3.8 269 9.2
2007-05-08 08:03:43 51°14.351 2°51.081 271 3.5 268 9.4
2007-05-08 08:03:48 51°14.351 2°51.073 269.8 3.3 267 9.4
2007-05-08 08:03:53 51°14.35 2°51.066 268.5 3.2 266 9.3
2007-05-08 08:03:58 51°14.35 2°51.059 267.4 3.1 264 9.3
2007-05-08 08:04:03 51°14.349 2°51.053 266.1 2.9 260 9.1
2007-05-08 08:04:08 51°14.348 2°51.047 264.4 2.8 260 9.2
2007-05-08 08:04:13 51°14.348 2°51.041 262.4 2.8 259 9.4
2007-05-08 08:04:18 51°14.346 2°51.035 260.7 2.9 256 9.5
2007-05-08 08:04:23 51°14.345 2°51.029 259.3 3 254 9.2
2007-05-08 08:04:28 51°14.344 2°51.023 257.6 3 250 9.1
2007-05-08 08:04:33 51°14.343 2°51.017 255.9 3.1 250 9.3
2007-05-08 08:04:38 51°14.341 2°51.01 253.8 3.1 249 9.3
2007-05-08 08:04:43 51°14.339 2°51.004 251.7 3.3 247 9.3
2007-05-08 08:04:48 51°14.337 2°50.997 250.1 3.2 243 9.1
2007-05-08 08:04:53 51°14.335 2°50.991 249.1 3.1 241 9.4
2007-05-08 08:04:58 51°14.333 2°50.985 247.6 3.2 240 9.5
2007-05-08 08:05:03 51°14.331 2°50.979 245.7 3.3 242 9.3
2007-05-08 08:05:08 51°14.328 2°50.972 244.6 3.5 240 9.3
2007-05-08 08:05:13 51°14.325 2°50.965 244.6 3.5 239 9.4
2007-05-08 08:05:18 51°14.323 2°50.958 244.8 3.6 241 9.3
2007-05-08 08:05:23 51°14.32 2°50.952 244.3 3.7 238 9
2007-05-08 08:05:28 51°14.318 2°50.945 244.4 3.7 243 9.3
2007-05-08 08:05:33 51°14.316 2°50.937 245.1 3.7 242 9.4
2007-05-08 08:05:38 51°14.313 2°50.93 245.7 3.8 243 9.3
2007-05-08 08:05:43 51°14.311 2°50.922 246.9 3.7 244 9.3
2007-05-08 08:05:48 51°14.309 2°50.915 248.1 3.8 247 9.3
2007-05-08 08:05:53 51°14.307 2°50.908 249.2 3.6 243 9.3
2007-05-08 08:05:58 51°14.304 2°50.901 251 3.5 246 9.5
2007-05-08 08:06:03 51°14.302 2°50.893 251.4 3.6 245 9.2
2007-05-08 08:06:08 51°14.301 2°50.886 251.7 3.6 248 9.1
2007-05-08 08:06:13 51°14.299 2°50.879 252.5 3.7 251 9.2
2007-05-08 08:06:18 51°14.298 2°50.871 254 3.7 252 9.2
2007-05-08 08:06:23 51°14.296 2°50.863 255.8 3.8 254 9.3
2007-05-08 08:06:28 51°14.295 2°50.855 257.8 3.8 256 9.3
2007-05-08 08:06:33 51°14.294 2°50.847 259.3 3.7 259 9.4
2007-05-08 08:06:38 51°14.293 2°50.839 261.2 3.6 260 9.5
2007-05-08 08:06:43 51°14.292 2°50.831 263.4 3.5 261 9.5
2007-05-08 08:06:48 51°14.292 2°50.823 265.3 3.5 264 9.3
2007-05-08 08:06:53 51°14.291 2°50.816 265.9 3.6 263 9.2
2007-05-08 08:06:58 51°14.291 2°50.808 266.3 3.6 264 9.2
2007-05-08 08:07:03 51°14.29 2°50.8 266.7 3.6 265 9.4
2007-05-08 08:07:08 51°14.29 2°50.791 266.5 3.8 266 9.5
2007-05-08 08:07:13 51°14.289 2°50.783 266.1 3.8 262 9.2
2007-05-08 08:07:18 51°14.288 2°50.775 265.3 3.8 262 9.4
2007-05-08 08:07:23 51°14.287 2°50.766 264.1 3.8 262 9.5
2007-05-08 08:07:28 51°14.286 2°50.758 263 3.8 260 9.4
2007-05-08 08:07:33 51°14.285 2°50.75 262 3.8 259 9.3
2007-05-08 08:07:38 51°14.284 2°50.742 260.5 3.6 256 9.3
2007-05-08 08:07:43 51°14.283 2°50.735 258.9 3.6 256 9.4
2007-05-08 08:07:48 51°14.281 2°50.727 256.9 3.5 250 9
2007-05-08 08:07:53 51°14.28 2°50.721 255.3 3.4 253 9.4
2007-05-08 08:07:58 51°14.278 2°50.714 253.3 3.2 248 9.4
2007-05-08 08:08:03 51°14.276 2°50.707 251.2 3.3 247 9.2
2007-05-08 08:08:08 51°14.274 2°50.701 248.9 3.1 244 9.2
2007-05-08 08:08:13 51°14.272 2°50.695 246.9 3.2 239 9
2007-05-08 08:08:18 51°14.269 2°50.689 244.9 3.1 237 9.1
2007-05-08 08:08:23 51°14.267 2°50.683 242.5 3.1 236 9.2
2007-05-08 08:08:28 51°14.264 2°50.678 240.4 3.2 231 9
2007-05-08 08:08:33 51°14.261 2°50.672 239.1 3.2 236 9.3
2007-05-08 08:08:38 51°14.259 2°50.666 238.2 3.2 232 9.2
2007-05-08 08:08:43 51°14.256 2°50.661 238.2 3.1 233 9.4
2007-05-08 08:08:48 51°14.253 2°50.655 238.2 3.1 234 9.4
2007-05-08 08:08:53 51°14.25 2°50.649 238.1 3.1 233 9.3
2007-05-08 08:08:58 51°14.248 2°50.644 238.5 3.2 231 9.5
2007-05-08 08:09:03 51°14.245 2°50.638 238.5 3.3 231 9.3
2007-05-08 08:09:08 51°14.242 2°50.633 238.2 3.3 231 9.1
2007-05-08 08:09:13 51°14.24 2°50.628 238.6 3.1 228 9
2007-05-08 08:09:18 51°14.237 2°50.623 238.9 3 234 9.1
2007-05-08 08:09:23 51°14.235 2°50.617 239.1 3 233 9.2
2007-05-08 08:09:28 51°14.232 2°50.612 239.7 3 230 9
2007-05-08 08:09:33 51°14.23 2°50.607 240.5 2.8 232 9
2007-05-08 08:09:38 51°14.227 2°50.602 240.8 2.8 235 9.2
2007-05-08 08:09:43 51°14.225 2°50.597 241.2 2.9 234 9.2
2007-05-08 08:09:48 51°14.223 2°50.592 242.1 2.9 236 9.2
2007-05-08 08:09:53 51°14.221 2°50.586 242.7 3.1 237 9.3
2007-05-08 08:09:58 51°14.218 2°50.58 243.1 3.1 235 9
2007-05-08 08:10:03 51°14.216 2°50.575 243.8 3 238 9
2007-05-08 08:10:08 51°14.214 2°50.569 243.7 3 237 9.3
2007-05-08 08:10:13 51°14.212 2°50.563 243.5 3.1 241 9.3
2007-05-08 08:10:18 51°14.209 2°50.557 243.8 3.2 238 9.2
2007-05-08 08:10:23 51°14.207 2°50.551 244.2 3.3 241 9.2
2007-05-08 08:10:28 51°14.205 2°50.545 245.2 3.3 239 9.1
2007-05-08 08:10:33 51°14.202 2°50.538 246 3.3 240 9
2007-05-08 08:10:38 51°14.2 2°50.532 246.7 3.3 243 9.1
2007-05-08 08:10:43 51°14.198 2°50.526 247.3 3.2 243 9.3
2007-05-08 08:10:48 51°14.196 2°50.519 248.2 3.2 243 9.3
2007-05-08 08:10:53 51°14.195 2°50.513 248.9 3.3 245 9
2007-05-08 08:10:58 51°14.193 2°50.506 249.1 3.3 244 9.1
2007-05-08 08:11:03 51°14.191 2°50.5 249.7 3.3 245 9.1
2007-05-08 08:11:08 51°14.189 2°50.493 250.6 3.3 247 9.1
2007-05-08 08:11:13 51°14.187 2°50.486 251.8 3.3 250 9.2
2007-05-08 08:11:18 51°14.185 2°50.479 252.4 3.3 244 9.3
2007-05-08 08:11:23 51°14.183 2°50.473 253 3.2 244 9
2007-05-08 08:11:28 51°14.182 2°50.467 252.4 3.1 245 9
2007-05-08 08:11:33 51°14.18 2°50.461 251.4 3.2 247 9.1
2007-05-08 08:11:38 51°14.178 2°50.454 250.9 3.2 248 9
2007-05-08 08:11:43 51°14.176 2°50.448 250.9 3.3 246 9.2
2007-05-08 08:11:48 51°14.175 2°50.441 251.1 3.3 247 9
2007-05-08 08:11:53 51°14.172 2°50.434 251.1 3.2 245 9.3
2007-05-08 08:11:58 51°14.171 2°50.428 250.8 3.3 245 9.2
2007-05-08 08:12:03 51°14.169 2°50.421 250.3 3.3 247 9.2
2007-05-08 08:12:08 51°14.166 2°50.414 249.9 3.3 243 9.1
2007-05-08 08:12:13 51°14.165 2°50.407 249.8 3.5 245 9.2
2007-05-08 08:12:18 51°14.162 2°50.401 249.1 3.4 243 9.2
2007-05-08 08:12:23 51°14.16 2°50.394 248.9 3.5 244 9.1
2007-05-08 08:12:28 51°14.158 2°50.387 248.7 3.4 245 9.2
2007-05-08 08:12:33 51°14.156 2°50.38 248.7 3.5 243 9
2007-05-08 08:12:38 51°14.154 2°50.373 249 3.5 244 9.1
2007-05-08 08:12:43 51°14.152 2°50.366 248.2 3.5 243 9.2
2007-05-08 08:12:48 51°14.149 2°50.36 247.8 3.5 240 9
2007-05-08 08:12:53 51°14.147 2°50.352 247.5 3.4 242 9.2
2007-05-08 08:12:58 51°14.145 2°50.346 246.2 3.5 242 9.2
2007-05-08 08:13:03 51°14.142 2°50.339 245.9 3.6 241 9.1
2007-05-08 08:13:08 51°14.139 2°50.332 245 3.7 239 8.9
2007-05-08 08:13:13 51°14.137 2°50.326 244.7 3.4 236 8.7
2007-05-08 08:13:18 51°14.134 2°50.319 244.3 3.4 237 9.1
2007-05-08 08:13:23 51°14.131 2°50.313 243.1 3.4 234 9
2007-05-08 08:13:28 51°14.128 2°50.307 241.6 3.5 234 8.9
2007-05-08 08:13:33 51°14.125 2°50.301 240.9 3.5 231 8.9
2007-05-08 08:13:38 51°14.122 2°50.295 239.5 3.6 232 8.8
2007-05-08 08:13:43 51°14.12 2°50.289 238.7 3.4 230 8.7
2007-05-08 08:13:48 51°14.117 2°50.284 238.2 3.3 233 8.8
2007-05-08 08:13:53 51°14.114 2°50.278 238 3.3 234 8.8
2007-05-08 08:13:58 51°14.111 2°50.272 238 3.3 232 9.1
2007-05-08 08:14:03 51°14.108 2°50.266 238.4 3.1 230 9.3
2007-05-08 08:14:08 51°14.105 2°50.261 238.6 2.9 227 9.2
2007-05-08 08:14:13 51°14.103 2°50.256 237.9 2.8 232 9
2007-05-08 08:14:18 51°14.1 2°50.252 236.8 2.8 226 8.6
2007-05-08 08:14:23 51°14.097 2°50.247 237.3 2.8 231 8.5
2007-05-08 08:14:28 51°14.094 2°50.242 237.5 3 226 8.7
2007-05-08 08:14:33 51°14.092 2°50.237 237.8 3.1 232 8.7
2007-05-08 08:14:38 51°14.089 2°50.231 237.9 3.1 231 8.8
2007-05-08 08:14:43 51°14.087 2°50.225 238.6 3.2 237 9.2
2007-05-08 08:14:48 51°14.084 2°50.219 239.6 3.4 237 8.9
2007-05-08 08:14:53 51°14.081 2°50.213 240.9 3.4 236 8.9
2007-05-08 08:14:58 51°14.079 2°50.206 242.3 3.5 238 9
2007-05-08 08:15:03 51°14.076 2°50.2 243.4 3.6 235 8.7
2007-05-08 08:15:08 51°14.073 2°50.194 244.5 3.2 236 8.8
2007-05-08 08:15:13 51°14.071 2°50.188 244.1 3.4 236 8.8
2007-05-08 08:15:18 51°14.068 2°50.182 243.6 3.3 237 8.7
2007-05-08 08:15:23 51°14.066 2°50.175 243.4 3.4 239 8.8
2007-05-08 08:15:28 51°14.063 2°50.169 244 3.4 240 8.9
2007-05-08 08:15:33 51°14.061 2°50.162 244.5 3.4 241 8.8
2007-05-08 08:15:38 51°14.058 2°50.155 245.2 3.5 241 8.7
2007-05-08 08:15:43 51°14.056 2°50.148 246.1 3.6 243 8.9
2007-05-08 08:15:48 51°14.054 2°50.14 247.2 3.7 243 8.8
2007-05-08 08:15:53 51°14.052 2°50.133 247.8 3.8 245 8.7
2007-05-08 08:15:58 51°14.049 2°50.125 248.8 3.9 243 8.6
2007-05-08 08:16:03 51°14.047 2°50.118 249.5 3.8 244 8.7
2007-05-08 08:16:08 51°14.045 2°50.11 250.1 3.7 245 8.9
2007-05-08 08:16:13 51°14.043 2°50.102 250.4 3.7 248 8.8
2007-05-08 08:16:18 51°14.041 2°50.095 250.5 3.7 243 8.9
2007-05-08 08:16:23 51°14.039 2°50.087 251.3 3.8 247 8.9
2007-05-08 08:16:28 51°14.037 2°50.079 250.9 3.9 247 8.8
2007-05-08 08:16:33 51°14.034 2°50.071 251.3 3.9 246 8.4
2007-05-08 08:16:38 51°14.032 2°50.064 251.8 3.9 248 8.5
2007-05-08 08:16:43 51°14.031 2°50.056 251.8 3.8 249 8.9
2007-05-08 08:16:48 51°14.028 2°50.048 252.3 3.9 247 8.9
2007-05-08 08:16:53 51°14.027 2°50.04 252.5 3.9 248 8.9
2007-05-08 08:16:58 51°14.024 2°50.032 252.7 3.9 246 8.6
2007-05-08 08:17:03 51°14.022 2°50.024 252.1 3.9 247 8.7
2007-05-08 08:17:08 51°14.02 2°50.016 251.9 3.9 245 8.5
2007-05-08 08:17:13 51°14.018 2°50.008 251.6 3.9 248 8.8
2007-05-08 08:17:18 51°14.015 2°50 251.1 4 248 9
2007-05-08 08:17:23 51°14.013 2°49.992 251.4 4 246 8.7
2007-05-08 08:17:28 51°14.011 2°49.984 251.4 4 247 8.5
2007-05-08 08:17:33 51°14.008 2°49.976 250.6 4 245 8.5
2007-05-08 08:17:38 51°14.006 2°49.968 250.7 3.9 247 8.6
2007-05-08 08:17:43 51°14.004 2°49.96 251.1 3.9 247 8.5
2007-05-08 08:17:48 51°14.002 2°49.953 250.7 3.9 247 8.5
2007-05-08 08:17:53 51°14 2°49.945 250.7 3.8 248 8.7
2007-05-08 08:17:58 51°13.998 2°49.937 250.8 3.7 244 8.9
2007-05-08 08:18:03 51°13.995 2°49.93 250.8 3.6 240 8.9
2007-05-08 08:18:08 51°13.993 2°49.924 249.1 3.5 242 8.5
2007-05-08 08:18:13 51°13.99 2°49.917 248 3.5 240 8.6
2007-05-08 08:18:18 51°13.988 2°49.911 247 3.4 240 8.4
2007-05-08 08:18:23 51°13.986 2°49.905 246.3 3.2 237 8.7
2007-05-08 08:18:28 51°13.983 2°49.898 245.6 3.2 240 8.8
2007-05-08 08:18:33 51°13.981 2°49.892 245 3.1 241 8.6
2007-05-08 08:18:38 51°13.979 2°49.886 244.8 3.1 238 8.6
2007-05-08 08:18:43 51°13.977 2°49.88 244.6 3.1 242 8.6
2007-05-08 08:18:48 51°13.974 2°49.874 244.5 3.1 236 8.6
2007-05-08 08:18:53 51°13.972 2°49.869 244.5 3.1 240 8.7
2007-05-08 08:18:58 51°13.97 2°49.863 244.2 3 234 8.7
2007-05-08 08:19:03 51°13.967 2°49.857 243.9 3 238 8.9
2007-05-08 08:19:08 51°13.965 2°49.852 243.8 3.1 235 8.6
2007-05-08 08:19:13 51°13.962 2°49.846 242.9 3.1 237 8.5
2007-05-08 08:19:18 51°13.96 2°49.841 242.4 3 235 8.4
2007-05-08 08:19:23 51°13.957 2°49.835 242.2 3.1 231 8.6
2007-05-08 08:19:28 51°13.955 2°49.83 241.4 3 235 8.5
2007-05-08 08:19:33 51°13.952 2°49.824 240.9 3.1 235 8.5
2007-05-08 08:19:38 51°13.95 2°49.819 240.7 3.2 232 8.4
2007-05-08 08:19:43 51°13.947 2°49.814 240.8 3.1 233 8.8
2007-05-08 08:19:48 51°13.944 2°49.808 240.8 3.1 232 8.4
2007-05-08 08:19:53 51°13.941 2°49.802 240.3 3.2 230 8.6
2007-05-08 08:19:58 51°13.938 2°49.797 239.6 3.2 232 8.2
2007-05-08 08:20:03 51°13.936 2°49.791 239.1 3.3 233 8.4
2007-05-08 08:20:08 51°13.933 2°49.785 239.2 3.3 232 8.7
2007-05-08 08:20:13 51°13.93 2°49.779 239.5 3.3 232 8.6
2007-05-08 08:20:18 51°13.927 2°49.774 239.5 3.3 227 8.1
2007-05-08 08:20:23 51°13.925 2°49.769 238.8 3.1 233 8
2007-05-08 08:20:28 51°13.922 2°49.764 238 3 230 8.1
2007-05-08 08:20:33 51°13.919 2°49.759 238 2.8 230 8.5
2007-05-08 08:20:38 51°13.916 2°49.754 238.3 2.8 224 8.2
2007-05-08 08:20:43 51°13.914 2°49.749 237.7 2.9 230 8.5
2007-05-08 08:20:48 51°13.911 2°49.744 237.2 3 229 8
2007-05-08 08:20:53 51°13.908 2°49.739 237.6 3 231 8.3
2007-05-08 08:20:58 51°13.906 2°49.733 239 3.1 237 8.4
2007-05-08 08:21:03 51°13.903 2°49.728 240.2 3.1 235 8.5
2007-05-08 08:21:08 51°13.901 2°49.722 241.9 3.2 238 8.4
2007-05-08 08:21:13 51°13.899 2°49.716 243.3 3.3 236 8.6
2007-05-08 08:21:18 51°13.896 2°49.71 244.5 3.1 240 8.4
2007-05-08 08:21:23 51°13.894 2°49.704 245.5 3.2 235 8.5
2007-05-08 08:21:28 51°13.892 2°49.698 245.5 3.3 239 8.2
2007-05-08 08:21:33 51°13.889 2°49.691 245.3 3.3 240 8.3
2007-05-08 08:21:38 51°13.887 2°49.685 245.4 3.3 239 8.3
2007-05-08 08:21:43 51°13.885 2°49.679 246.1 3.3 239 8.1
2007-05-08 08:21:48 51°13.883 2°49.672 246.6 3.4 241 8.4
2007-05-08 08:21:53 51°13.881 2°49.666 247.2 3.4 244 8.3
2007-05-08 08:21:58 51°13.878 2°49.659 248.1 3.4 243 8.3
2007-05-08 08:22:03 51°13.876 2°49.652 248.8 3.4 243 8.4
2007-05-08 08:22:08 51°13.874 2°49.645 249.4 3.4 244 8.5
2007-05-08 08:22:13 51°13.872 2°49.638 250.1 3.3 244 8.4
2007-05-08 08:22:18 51°13.871 2°49.632 250.8 3.3 247 8.4
2007-05-08 08:22:23 51°13.869 2°49.625 251.1 3.3 244 8.5
2007-05-08 08:22:28 51°13.867 2°49.618 251.2 3.4 248 8.6
2007-05-08 08:22:33 51°13.865 2°49.611 251.7 3.5 248 8.4
2007-05-08 08:22:38 51°13.863 2°49.604 252.4 3.5 248 8.6
2007-05-08 08:22:43 51°13.861 2°49.596 253.1 3.5 250 8.5
2007-05-08 08:22:48 51°13.86 2°49.589 254 3.5 250 8.3
2007-05-08 08:22:53 51°13.858 2°49.582 254.8 3.6 249 8.4
2007-05-08 08:22:58 51°13.856 2°49.575 255.2 3.6 251 8.4
2007-05-08 08:23:03 51°13.855 2°49.567 255.5 3.6 251 8.4
2007-05-08 08:23:08 51°13.853 2°49.56 255.9 3.6 253 8.3
2007-05-08 08:23:13 51°13.852 2°49.552 257 3.6 255 8.2
2007-05-08 08:23:18 51°13.851 2°49.544 258.1 3.6 255 8.4
2007-05-08 08:23:23 51°13.85 2°49.536 259.5 3.6 256 8.6
2007-05-08 08:23:28 51°13.848 2°49.529 260.1 3.6 257 8.5
2007-05-08 08:23:33 51°13.848 2°49.521 261 3.6 259 8.4
2007-05-08 08:23:38 51°13.846 2°49.513 261.6 3.7 258 8.4
2007-05-08 08:23:43 51°13.846 2°49.505 262.4 3.7 260 8.7
2007-05-08 08:23:48 51°13.845 2°49.497 263.3 3.7 260 8.4
2007-05-08 08:23:53 51°13.844 2°49.49 264.1 3.6 263 8.6
2007-05-08 08:23:58 51°13.843 2°49.482 264.9 3.5 262 8.4
2007-05-08 08:24:03 51°13.843 2°49.475 265.8 3.5 264 8.4
2007-05-08 08:24:08 51°13.842 2°49.467 266.4 3.5 263 8.5
2007-05-08 08:24:13 51°13.842 2°49.459 267 3.5 267 8.4
2007-05-08 08:24:18 51°13.842 2°49.451 267.4 3.5 266 8.7
2007-05-08 08:24:23 51°13.841 2°49.444 268.1 3.4 266 8.6
2007-05-08 08:24:28 51°13.841 2°49.436 268.4 3.3 265 8.7
2007-05-08 08:24:33 51°13.841 2°49.429 268.5 3.4 268 8.8
2007-05-08 08:24:38 51°13.84 2°49.421 268.4 3.5 264 8.6
2007-05-08 08:24:43 51°13.84 2°49.413 268.3 3.5 266 8.4
2007-05-08 08:24:48 51°13.839 2°49.406 268 3.5 265 8.7
2007-05-08 08:24:53 51°13.839 2°49.398 267.9 3.5 266 8.6
2007-05-08 08:24:58 51°13.839 2°49.39 267.9 3.5 265 8.7
2007-05-08 08:25:03 51°13.838 2°49.382 267.7 3.5 266 8.9
2007-05-08 08:25:07 51°13.838 2°49.376 267.4 3.4 266 8.8
2007-05-08 08:25:13 51°13.837 2°49.367 267.2 3.5 265 8.8
2007-05-08 08:25:18 51°13.837 2°49.359 267 3.5 264 8.7
2007-05-08 08:25:23 51°13.836 2°49.352 266.9 3.4 264 8.7
2007-05-08 08:25:28 51°13.836 2°49.344 266.3 3.3 263 8.7
2007-05-08 08:25:33 51°13.835 2°49.337 265.9 3.3 263 8.9
2007-05-08 08:25:38 51°13.835 2°49.33 264.9 3.2 263 9
2007-05-08 08:25:43 51°13.834 2°49.323 264.2 3.3 261 8.8
2007-05-08 08:25:48 51°13.833 2°49.315 263.8 3.3 260 8.9
2007-05-08 08:25:52 51°13.833 2°49.31 262.9 3.3 259 8.8
2007-05-08 08:25:58 51°13.832 2°49.301 261.8 3.3 258 8.7
2007-05-08 08:26:03 51°13.83 2°49.294 260.5 3.3 255 8.9
2007-05-08 08:26:08 51°13.829 2°49.287 259 3.4 256 9
2007-05-08 08:26:13 51°13.828 2°49.28 257.5 3.3 253 8.9
2007-05-08 08:26:18 51°13.827 2°49.273 256.5 3.3 254 9
2007-05-08 08:26:23 51°13.825 2°49.266 255.3 3.4 252 8.9
2007-05-08 08:26:28 51°13.824 2°49.259 254.3 3.4 252 8.8
2007-05-08 08:26:33 51°13.822 2°49.252 253.8 3.5 251 8.9
2007-05-08 08:26:38 51°13.82 2°49.245 253.6 3.3 247 8.9
2007-05-08 08:26:43 51°13.819 2°49.238 253 3.3 248 8.7
2007-05-08 08:26:48 51°13.817 2°49.232 252.1 3.2 241 8.5
2007-05-08 08:26:53 51°13.815 2°49.226 251.2 3.1 248 8.3
2007-05-08 08:26:58 51°13.813 2°49.221 249.9 3.1 242 8.5
2007-05-08 08:27:03 51°13.812 2°49.214 249.1 3.1 247 8.5
2007-05-08 08:27:08 51°13.809 2°49.209 248.5 3.1 239 8.5
2007-05-08 08:27:13 51°13.808 2°49.203 248.1 3 245 8.6
2007-05-08 08:27:18 51°13.805 2°49.198 247.5 2.9 237 8.6
2007-05-08 08:27:23 51°13.804 2°49.192 246.6 2.9 243 8.9
2007-05-08 08:27:28 51°13.801 2°49.186 246.2 3.1 240 8.9
2007-05-08 08:27:33 51°13.8 2°49.18 246.1 3.1 242 8.9
2007-05-08 08:27:38 51°13.798 2°49.174 246.2 3.2 243 9
2007-05-08 08:27:43 51°13.796 2°49.168 246.2 3.2 243 9
2007-05-08 08:27:48 51°13.794 2°49.161 246.7 3.3 244 8.9
2007-05-08 08:27:53 51°13.791 2°49.155 247.4 3.3 245 8.9
2007-05-08 08:27:58 51°13.79 2°49.148 247.5 3.2 245 8.9
2007-05-08 08:28:03 51°13.788 2°49.143 248.4 3 243 8.9
2007-05-08 08:28:08 51°13.786 2°49.136 248.9 3.1 244 8.9
2007-05-08 08:28:13 51°13.784 2°49.13 248.9 3.1 245 8.8
2007-05-08 08:28:18 51°13.782 2°49.124 249.2 3 245 8.7
2007-05-08 08:28:23 51°13.78 2°49.118 249.9 3 246 9
2007-05-08 08:28:28 51°13.778 2°49.112 249.8 3.1 244 8.9
2007-05-08 08:28:33 51°13.776 2°49.105 249.9 3.2 247 8.9
2007-05-08 08:28:38 51°13.775 2°49.099 250.2 3.2 244 8.8
2007-05-08 08:28:43 51°13.773 2°49.093 250.4 3.1 247 8.6
2007-05-08 08:28:48 51°13.771 2°49.087 250.4 3 243 8.7
2007-05-08 08:28:53 51°13.769 2°49.081 250.5 3 246 8.8
2007-05-08 08:28:58 51°13.767 2°49.075 250.4 3.1 244 8.9
2007-05-08 08:29:03 51°13.766 2°49.068 250.4 3.1 245 8.9
2007-05-08 08:29:08 51°13.764 2°49.062 251.2 3.2 247 9
2007-05-08 08:29:13 51°13.762 2°49.056 251.4 3.1 247 8.8
2007-05-08 08:29:18 51°13.761 2°49.049 251.9 3.2 249 8.9
2007-05-08 08:29:23 51°13.759 2°49.042 252.4 3.2 248 8.6
2007-05-08 08:29:28 51°13.757 2°49.035 252.7 3.3 249 8.9
2007-05-08 08:29:33 51°13.756 2°49.028 253 3.4 249 8.9
2007-05-08 08:29:38 51°13.754 2°49.021 253.7 3.4 252 8.8
2007-05-08 08:29:43 51°13.753 2°49.014 254.4 3.4 252 8.9
2007-05-08 08:29:48 51°13.751 2°49.007 255.2 3.4 250 9
2007-05-08 08:29:53 51°13.75 2°49 256.2 3.4 255 8.9
2007-05-08 08:29:58 51°13.749 2°48.993 256.7 3.4 252 9
2007-05-08 08:30:03 51°13.747 2°48.986 257 3.3 255 8.7
2007-05-08 08:30:08 51°13.746 2°48.979 257.3 3.3 254 8.5
2007-05-08 08:30:13 51°13.745 2°48.972 257.5 3.2 255 8.5
2007-05-08 08:30:18 51°13.744 2°48.965 257.8 3.2 258 8.2
2007-05-08 08:30:23 51°13.743 2°48.959 258 3.2 255 8
2007-05-08 08:30:28 51°13.742 2°48.952 258.5 3.2 259 8
2007-05-08 08:30:33 51°13.741 2°48.945 258.7 3.2 258 8.4
2007-05-08 08:30:38 51°13.74 2°48.938 259.1 3.1 260 8.5
2007-05-08 08:30:43 51°13.739 2°48.931 260.1 3.1 259 8.4
2007-05-08 08:30:48 51°13.739 2°48.924 261.3 3.1 261 8.3
2007-05-08 08:30:53 51°13.738 2°48.917 262.5 3.1 261 8.4
2007-05-08 08:30:58 51°13.737 2°48.911 264 3.1 262 8.6
2007-05-08 08:31:03 51°13.737 2°48.904 265.4 3.1 265 8.4
2007-05-08 08:31:08 51°13.737 2°48.898 266.8 3 264 8.7
2007-05-08 08:31:13 51°13.737 2°48.891 268.3 2.9 268 8.8
2007-05-08 08:31:18 51°13.736 2°48.885 269.6 2.9 267 8.7
2007-05-08 08:31:23 51°13.737 2°48.879 270.8 2.9 271 8.9
2007-05-08 08:31:28 51°13.737 2°48.873 272.4 2.9 275 9
2007-05-08 08:31:33 51°13.737 2°48.867 274.4 3 276 8.9
2007-05-08 08:31:38 51°13.738 2°48.86 276.5 3.1 280 9.1
2007-05-08 08:31:43 51°13.739 2°48.853 278.8 3.1 285 9.1
2007-05-08 08:31:48 51°13.74 2°48.846 281.3 3.2 287 9.1
2007-05-08 08:31:53 51°13.742 2°48.84 284.1 3.3 290 9
2007-05-08 08:31:58 51°13.744 2°48.833 287 3.4 291 9.3
2007-05-08 08:32:03 51°13.746 2°48.826 289.3 3.4 294 9.3
2007-05-08 08:32:08 51°13.748 2°48.819 291.6 3.4 298 9.3
2007-05-08 08:32:13 51°13.75 2°48.812 294.3 3.5 301 9.5
2007-05-08 08:32:18 51°13.753 2°48.806 298.3 3.5 308 9.3
2007-05-08 08:32:23 51°13.757 2°48.8 304.3 3.6 311 9.5
2007-05-08 08:32:28 51°13.761 2°48.795 310.4 3.5 319 9.5
2007-05-08 08:32:33 51°13.764 2°48.791 316.7 3.4 323 9.5
2007-05-08 08:32:38 51°13.769 2°48.786 322.5 3.5 332 9.7
2007-05-08 08:32:43 51°13.773 2°48.783 328.8 3.5 335 9.4
2007-05-08 08:32:48 51°13.777 2°48.781 335.3 3.5 343 9.6
2007-05-08 08:32:53 51°13.782 2°48.779 340.8 3.4 343 9.5
2007-05-08 08:32:58 51°13.787 2°48.779 346.4 3.5 352 9.3
2007-05-08 08:33:03 51°13.792 2°48.779 352 3.5 359 9.4
2007-05-08 08:33:08 51°13.797 2°48.779 357.6 3.6 3 9.6
2007-05-08 08:33:13 51°13.802 2°48.78 2.3 3.6 7 9.8
2007-05-08 08:33:18 51°13.806 2°48.78 6.4 3.6 8 9.9
2007-05-08 08:33:23 51°13.811 2°48.782 10.5 3.6 12 10
2007-05-08 08:33:28 51°13.816 2°48.785 15.2 3.5 20 9.6
2007-05-08 08:33:33 51°13.82 2°48.789 19.9 3.5 24 9.5
2007-05-08 08:33:38 51°13.824 2°48.793 25.4 3.5 34 9.6
2007-05-08 08:33:43 51°13.828 2°48.798 31.2 3.5 38 9.7
2007-05-08 08:33:48 51°13.832 2°48.803 36.2 3.5 38 9.9
2007-05-08 08:33:53 51°13.835 2°48.809 41.3 3.5 46 9.9
2007-05-08 08:33:58 51°13.838 2°48.815 47.1 3.5 54 9.9
2007-05-08 08:34:03 51°13.841 2°48.821 52.3 3.5 60 10.2
2007-05-08 08:34:08 51°13.844 2°48.828 58.4 3.6 61 10.3
2007-05-08 08:34:13 51°13.845 2°48.836 62.8 3.6 70 10.1
2007-05-08 08:34:18 51°13.846 2°48.843 69.5 3.6 76 10.2
2007-05-08 08:34:23 51°13.847 2°48.851 75.6 3.6 84 10.2
2007-05-08 08:34:28 51°13.847 2°48.859 81.2 3.6 92 10.2
2007-05-08 08:34:33 51°13.847 2°48.867 88 3.6 94 10.2
2007-05-08 08:34:38 51°13.845 2°48.875 93.8 3.5 101 10.2
2007-05-08 08:34:43 51°13.844 2°48.882 100.1 3.5 110 10
2007-05-08 08:34:48 51°13.842 2°48.889 104.7 3.5 110 10
2007-05-08 08:34:53 51°13.84 2°48.896 111.5 3.4 119 10
2007-05-08 08:34:58 51°13.837 2°48.903 117.9 3.4 122 9.8
2007-05-08 08:35:03 51°13.834 2°48.908 123.3 3.4 131 9.8
2007-05-08 08:35:08 51°13.83 2°48.913 128.9 3.4 136 9.6
2007-05-08 08:35:13 51°13.827 2°48.918 135.2 3.3 141 9.5
2007-05-08 08:35:18 51°13.823 2°48.923 138 3.3 141 9.5
2007-05-08 08:35:23 51°13.819 2°48.926 145 3.3 151 9.5
2007-05-08 08:35:28 51°13.815 2°48.929 150.3 3.3 154 9.3
2007-05-08 08:35:33 51°13.811 2°48.931 153.7 3.3 161 9
2007-05-08 08:35:38 51°13.807 2°48.933 159.6 3.2 166 9.1
2007-05-08 08:35:43 51°13.802 2°48.936 164.1 3.3 165 9.2
2007-05-08 08:35:48 51°13.798 2°48.936 168.3 3.2 174 9.1
2007-05-08 08:35:53 51°13.794 2°48.937 173 3.2 173 9
2007-05-08 08:35:58 51°13.789 2°48.938 176.3 3.1 177 9
2007-05-08 08:36:03 51°13.785 2°48.938 180.8 3.2 175 9.2
2007-05-08 08:36:08 51°13.781 2°48.936 184.6 3.1 188 9.1
2007-05-08 08:36:13 51°13.776 2°48.936 188.7 3.1 186 9.1
2007-05-08 08:36:18 51°13.772 2°48.934 191.3 3.1 194 9
2007-05-08 08:36:23 51°13.768 2°48.933 194.6 3.1 196 9
2007-05-08 08:36:28 51°13.764 2°48.93 198.3 3.1 202 8.6
2007-05-08 08:36:33 51°13.76 2°48.929 202.5 3.1 198 8.8
2007-05-08 08:36:38 51°13.756 2°48.925 206.1 3.1 206 8.5
2007-05-08 08:36:43 51°13.752 2°48.922 208.5 3.1 206 8.5
2007-05-08 08:36:48 51°13.748 2°48.918 213 3.1 215 8.7
2007-05-08 08:36:53 51°13.745 2°48.914 217 2.9 217 8.5
2007-05-08 08:36:58 51°13.742 2°48.91 221.1 2.9 223 8.5
2007-05-08 08:37:03 51°13.739 2°48.906 224.9 2.9 223 8.5
2007-05-08 08:37:08 51°13.736 2°48.901 227.3 2.8 226 8.5
2007-05-08 08:37:13 51°13.733 2°48.897 230.9 2.7 225 8.7
2007-05-08 08:37:18 51°13.731 2°48.892 235.3 2.5 232 8.9
2007-05-08 08:37:23 51°13.729 2°48.888 238.7 2.5 236 8.7
2007-05-08 08:37:28 51°13.726 2°48.883 241.5 2.6 234 8.8
2007-05-08 08:37:33 51°13.725 2°48.878 244 2.8 242 8.8
2007-05-08 08:37:38 51°13.723 2°48.872 247.9 3 247 8.9
2007-05-08 08:37:43 51°13.722 2°48.865 253.1 3.1 255 9.2
2007-05-08 08:37:48 51°13.721 2°48.858 258.4 3.2 263 9.2
2007-05-08 08:37:53 51°13.722 2°48.85 263.7 3.3 272 9.3
2007-05-08 08:37:58 51°13.722 2°48.843 272.4 3.5 279 9.5
2007-05-08 08:38:03 51°13.724 2°48.835 278.6 3.5 290 9.2
2007-05-08 08:38:08 51°13.726 2°48.828 286.5 3.6 297 9.1
2007-05-08 08:38:13 51°13.729 2°48.822 294.7 3.5 306 9.1
2007-05-08 08:38:18 51°13.732 2°48.817 304.8 3.1 315 9
2007-05-08 08:38:23 51°13.736 2°48.813 311.5 3.1 326 9.4
2007-05-08 08:38:28 51°13.74 2°48.81 321 3.1 329 9.1
2007-05-08 08:38:33 51°13.743 2°48.807 329.9 2.9 337 9.1
2007-05-08 08:38:38 51°13.747 2°48.805 336.5 2.8 339 9
2007-05-08 08:38:43 51°13.75 2°48.804 339.9 2.6 348 8.8
2007-05-08 08:38:48 51°13.753 2°48.803 343.9 2.2 347 8.6
2007-05-08 08:38:53 51°13.756 2°48.802 346.4 2.1 348 8.5
2007-05-08 08:38:58 51°13.759 2°48.801 347.6 2 349 8.6
2007-05-08 08:39:03 51°13.762 2°48.801 348.2 1.9 347 8.8
2007-05-08 08:39:08 51°13.764 2°48.8 347.4 1.9 346 9.2
2007-05-08 08:39:13 51°13.767 2°48.799 346.9 1.9 346 9.5
2007-05-08 08:39:18 51°13.769 2°48.798 346 1.8 344 9.7
2007-05-08 08:39:23 51°13.772 2°48.797 344.9 1.7 347 9.8
2007-05-08 08:39:28 51°13.774 2°48.796 344.6 1.6 338 10
2007-05-08 08:39:33 51°13.776 2°48.795 343.3 1.5 343 10
2007-05-08 08:39:38 51°13.778 2°48.794 341.7 1.5 339 9.8
2007-05-08 08:39:43 51°13.779 2°48.793 340.7 1.3 342 9.8
2007-05-08 08:39:48 51°13.781 2°48.792 339.8 1.1 351 9.6
2007-05-08 08:39:53 51°13.782 2°48.792 339.6 0.9 358 9.8
2007-05-08 08:39:58 51°13.784 2°48.792 339.8 0.9 358 9.7
2007-05-08 08:40:03 51°13.785 2°48.792 342 0.9 1 9.5
2007-05-08 08:40:08 51°13.786 2°48.791 342.9 0.9 339 9.5
2007-05-08 08:40:13 51°13.787 2°48.792 343.3 0.9 357 9.6
2007-05-08 08:40:18 51°13.788 2°48.791 343.3 0.9 346 9.7
2007-05-08 08:40:23 51°13.789 2°48.791 343 0.8 359 9.6
2007-05-08 08:40:28 51°13.79 2°48.791 342.7 0.7 354 9.5
2007-05-08 08:40:33 51°13.791 2°48.791 342.2 0.7 349 9.6
2007-05-08 08:40:38 51°13.793 2°48.791 341.6 0.8 353 9.5
2007-05-08 08:40:43 51°13.794 2°48.791 342.2 0.8 355 9.5
2007-05-08 08:40:48 51°13.795 2°48.791 342.6 1 355 9.7
2007-05-08 08:40:53 51°13.796 2°48.79 344 1 346 9.7
2007-05-08 08:40:58 51°13.798 2°48.79 344.6 1.2 350 9.7
2007-05-08 08:41:03 51°13.8 2°48.789 345.4 1.4 340 9.7
2007-05-08 08:41:08 51°13.802 2°48.788 346.9 1.6 349 9.6
2007-05-08 08:41:13 51°13.805 2°48.788 348.4 1.8 353 9.7
2007-05-08 08:41:18 51°13.808 2°48.787 351.1 2.1 359 9.8
2007-05-08 08:41:23 51°13.811 2°48.787 353.8 2.3 -999 9.7
2007-05-08 08:41:28 51°13.814 2°48.786 357.8 2.6 357 9.7
2007-05-08 08:41:33 51°13.818 2°48.787 2.5 2.7 7 9.6
2007-05-08 08:41:38 51°13.822 2°48.788 7.2 2.9 9 9.7
2007-05-08 08:41:43 51°13.826 2°48.79 13.8 3 14 9.9
2007-05-08 08:41:48 51°13.83 2°48.793 17.9 3.2 26 10.1
2007-05-08 08:41:53 51°13.835 2°48.797 22.7 3.4 28 10.2
2007-05-08 08:41:58 51°13.839 2°48.801 27.8 3.6 33 9.9
2007-05-08 08:42:03 51°13.843 2°48.806 33.4 3.6 37 9.9
2007-05-08 08:42:08 51°13.846 2°48.812 40 3.7 47 9.7
2007-05-08 08:42:13 51°13.85 2°48.819 47.4 3.8 54 9.8
2007-05-08 08:42:18 51°13.852 2°48.826 53.9 4 59 10
2007-05-08 08:42:23 51°13.855 2°48.834 60.1 4.1 63 10.2
2007-05-08 08:42:28 51°13.858 2°48.843 64.5 4.4 63 10.1
2007-05-08 08:42:33 51°13.86 2°48.853 66.5 4.9 66 10.1
2007-05-08 08:42:38 51°13.864 2°48.864 67.4 5.6 62 10.2
2007-05-08 08:42:43 51°13.868 2°48.877 66.7 6.5 64 10.2
2007-05-08 08:42:48 51°13.873 2°48.891 66.1 7.2 60 10
2007-05-08 08:42:53 51°13.878 2°48.907 64.6 8.2 65 10.1
2007-05-08 08:42:58 51°13.885 2°48.924 64.7 8.9 57 10
2007-05-08 08:43:03 51°13.89 2°48.944 62.7 10 66 9.8
2007-05-08 08:43:08 51°13.899 2°48.962 64.9 10.5 53 9.8
2007-05-08 08:43:13 51°13.905 2°48.984 60.9 10.8 66 9.7
2007-05-08 08:43:18 51°13.914 2°49.005 64.2 11.3 58 9.7
2007-05-08 08:43:23 51°13.921 2°49.029 64.5 11.7 65 9.6
2007-05-08 08:43:28 51°13.929 2°49.051 65.3 12 60 9.6
2007-05-08 08:43:33 51°13.936 2°49.076 64.8 12.1 65 9.3
2007-05-08 08:43:38 51°13.942 2°49.1 65.1 11.9 70 9.4
2007-05-08 08:43:43 51°13.948 2°49.126 69.3 12.2 69 9.5
2007-05-08 08:43:48 51°13.955 2°49.151 72.2 12.6 66 9.4
2007-05-08 08:43:53 51°13.962 2°49.177 70.8 12.7 67 9.4
2007-05-08 08:43:58 51°13.969 2°49.202 70.3 12.7 66 9.3
2007-05-08 08:44:03 51°13.977 2°49.227 69.1 12.4 65 9.3
2007-05-08 08:44:08 51°13.982 2°49.253 68.3 12.3 71 9.2
2007-05-08 08:44:13 51°13.989 2°49.279 71.2 12.6 67 9.3
2007-05-08 08:44:18 51°13.995 2°49.305 72.1 12.8 70 9.3
2007-05-08 08:44:23 51°14.003 2°49.33 72.6 12.5 64 9.3
2007-05-08 08:44:27 51°14.007 2°49.351 69.7 12.5 69 9.2
2007-05-08 08:44:32 51°14.015 2°49.375 70.4 12.5 62 9.3
2007-05-08 08:44:38 51°14.023 2°49.406 67.9 12.5 70 9.1
2007-05-08 08:44:43 51°14.03 2°49.431 69.7 12.6 65 9.1
2007-05-08 08:44:47 51°14.035 2°49.452 70.1 12.6 69 9.2
2007-05-08 08:44:52 51°14.042 2°49.478 70.4 12.6 65 9.1
2007-05-08 08:44:58 51°14.049 2°49.509 70.2 12.5 71 9.1
2007-05-08 08:45:03 51°14.055 2°49.536 71.6 12.8 70 9
2007-05-08 08:45:07 51°14.06 2°49.557 74 12.7 68 9
2007-05-08 08:45:12 51°14.067 2°49.582 72.1 12.3 69 9.1
2007-05-08 08:45:18 51°14.074 2°49.613 71.4 12.4 68 9.1
2007-05-08 08:45:22 51°14.08 2°49.633 72 12.6 67 9.1
2007-05-08 08:45:28 51°14.088 2°49.664 70.8 12.6 66 9
2007-05-08 08:45:32 51°14.094 2°49.684 70.4 12.7 67 8.9
2007-05-08 08:45:38 51°14.102 2°49.715 70.2 12.9 66 8.9
2007-05-08 08:45:42 51°14.108 2°49.736 69.3 12.5 65 8.8
2007-05-08 08:45:47 51°14.114 2°49.761 68.5 12.3 71 8.9
2007-05-08 08:45:53 51°14.122 2°49.791 71.3 12.3 67 8.9
2007-05-08 08:45:58 51°14.126 2°49.817 71.3 12.2 74 8.9
2007-05-08 08:46:02 51°14.131 2°49.838 74 12.8 70 9
2007-05-08 08:46:07 51°14.137 2°49.866 75.9 13.3 70 8.7
2007-05-08 08:46:13 51°14.146 2°49.896 72.9 12.3 66 8.8
2007-05-08 08:46:18 51°14.149 2°49.922 70.3 11.9 74 8.9
2007-05-08 08:46:23 51°14.157 2°49.947 75.4 12.4 66 8.7
2007-05-08 08:46:27 51°14.163 2°49.966 72.2 12.4 63 8.7
2007-05-08 08:46:32 51°14.17 2°49.992 67.4 12.6 67 8.7
2007-05-08 08:46:38 51°14.179 2°50.022 69.4 12.8 65 8.9
2007-05-08 08:46:43 51°14.185 2°50.048 68.6 12.6 69 8.9
2007-05-08 08:46:47 51°14.19 2°50.069 70.1 12.5 69 9
2007-05-08 08:46:52 51°14.196 2°50.095 72.3 12.7 70 8.9
2007-05-08 08:46:58 51°14.204 2°50.126 73 12.7 68 8.9
2007-05-08 08:47:03 51°14.209 2°50.153 71.7 12.4 73 8.8
2007-05-08 08:47:07 51°14.213 2°50.174 73.7 12.7 73 8.8
2007-05-08 08:47:12 51°14.219 2°50.201 76.4 13 71 8.9
2007-05-08 08:47:18 51°14.226 2°50.233 74.5 13 69 8.8
2007-05-08 08:47:22 51°14.231 2°50.255 73.3 12.9 72 8.8
2007-05-08 08:47:28 51°14.239 2°50.285 72.7 12.4 67 8.9
2007-05-08 08:47:32 51°14.241 2°50.307 71.6 12.5 79 8.9
2007-05-08 08:47:38 51°14.247 2°50.34 75.5 13.1 73 8.8
2007-05-08 08:47:42 51°14.251 2°50.363 78.2 12.8 77 8.7
2007-05-08 08:47:48 51°14.256 2°50.394 78.4 12.5 75 8.9
2007-05-08 08:47:53 51°14.26 2°50.421 79.6 12.6 75 8.7
2007-05-08 08:47:58 51°14.265 2°50.448 78.5 12.5 73 8.9
2007-05-08 08:48:02 51°14.269 2°50.469 77.1 12.6 73 8.7
2007-05-08 08:48:07 51°14.275 2°50.496 76.1 12.7 70 8.6
2007-05-08 08:48:13 51°14.281 2°50.527 74.4 12.3 73 8.8
2007-05-08 08:48:18 51°14.286 2°50.552 75 12 75 8.8
2007-05-08 08:48:22 51°14.289 2°50.574 76.8 12.7 74 8.9
2007-05-08 08:48:27 51°14.295 2°50.601 77.6 13.1 72 8.7
2007-05-08 08:48:32 51°14.3 2°50.63 76 13.2 76 8.6
2007-05-08 08:48:38 51°14.306 2°50.662 76.7 12.9 74 8.5
2007-05-08 08:48:43 51°14.309 2°50.689 77.1 12.4 78 8.7
2007-05-08 08:48:47 51°14.312 2°50.71 79.1 12.3 77 8.8
2007-05-08 08:48:52 51°14.315 2°50.738 79.5 12.8 79 8.8
2007-05-08 08:48:58 51°14.32 2°50.771 81.9 13 76 8.7
2007-05-08 08:49:03 51°14.324 2°50.799 80.4 12.8 77 8.6
2007-05-08 08:49:07 51°14.329 2°50.82 79.7 12.5 74 8.7
2007-05-08 08:49:12 51°14.333 2°50.846 77.6 12.4 72 8.6
2007-05-08 08:49:18 51°14.34 2°50.878 77.3 12.5 73 8.5
2007-05-08 08:49:23 51°14.346 2°50.904 75.8 12.7 70 8.7
2007-05-08 08:49:27 51°14.35 2°50.926 75.8 13 70 8.6
2007-05-08 08:49:32 51°14.358 2°50.952 73.3 12.9 67 8.6
2007-05-08 08:49:37 51°14.363 2°50.979 71 12.6 71 8.6
2007-05-08 08:49:42 51°14.369 2°51.005 72.6 12.6 69 8.6
2007-05-08 08:49:48 51°14.376 2°51.036 73.2 12.6 72 8.6
2007-05-08 08:49:52 51°14.379 2°51.059 74.4 12.9 74 8.5
2007-05-08 08:49:58 51°14.385 2°51.091 76.6 12.9 74 8.5
2007-05-08 08:50:02 51°14.39 2°51.112 77 12.4 72 8.6
2007-05-08 08:50:07 51°14.394 2°51.139 76.8 12.6 76 8.5
2007-05-08 08:50:13 51°14.402 2°51.171 77.5 12.9 68 8.7
2007-05-08 08:50:18 51°14.406 2°51.198 73.8 12.4 76 8.4
2007-05-08 08:50:22 51°14.41 2°51.219 75.4 12.3 75 8.6
2007-05-08 08:50:27 51°14.413 2°51.246 77.8 12.5 80 8.6
2007-05-08 08:50:32 51°14.417 2°51.273 80.2 12.6 77 8.7
2007-05-08 08:50:38 51°14.421 2°51.305 81 12.5 78 8.5
2007-05-08 08:50:43 51°14.427 2°51.331 81.4 12.4 72 8.6
2007-05-08 08:50:47 51°14.429 2°51.353 77.8 12.3 75 8.6
2007-05-08 08:50:52 51°14.436 2°51.378 77.8 12.3 73 8.7
2007-05-08 08:50:58 51°14.438 2°51.412 75.3 12.8 82 8.5
2007-05-08 08:51:03 51°14.443 2°51.441 81.5 13.5 77 8.4
2007-05-08 08:51:07 51°14.445 2°51.464 82 13.4 76 8.4
2007-05-08 08:51:12 51°14.451 2°51.491 81 12.5 72 8.4
2007-05-08 08:51:18 51°14.456 2°51.522 77.3 12 78 8.5
2007-05-08 08:51:23 51°14.46 2°51.549 77.6 12.7 76 8.7
2007-05-08 08:51:27 51°14.463 2°51.572 79.4 13.1 78 8.6
2007-05-08 08:51:32 51°14.467 2°51.599 79.8 12.9 79 8.5
2007-05-08 08:51:37 51°14.47 2°51.627 81.3 12.9 80 8.6
2007-05-08 08:51:43 51°14.475 2°51.661 83 12.9 76 8.6
2007-05-08 08:51:48 51°14.477 2°51.688 81.3 12.6 81 8.6
2007-05-08 08:51:52 51°14.48 2°51.709 81.8 12.2 78 8.6
2007-05-08 08:51:58 51°14.483 2°51.742 82.1 12.5 84 8.7
2007-05-08 08:52:02 51°14.486 2°51.765 84 13.1 77 8.5
2007-05-08 08:52:08 51°14.491 2°51.798 82.4 12.9 78 8.4
2007-05-08 08:52:13 51°14.494 2°51.825 80.7 12.5 80 8.6
2007-05-08 08:52:18 51°14.497 2°51.853 81.1 12.5 79 8.6
2007-05-08 08:52:22 51°14.499 2°51.875 81.7 12.7 82 8.6
2007-05-08 08:52:28 51°14.504 2°51.908 82.7 12.8 78 8.6
2007-05-08 08:52:32 51°14.506 2°51.93 82.3 12.5 80 8.5
2007-05-08 08:52:38 51°14.509 2°51.962 81.6 12.3 82 8.6
2007-05-08 08:52:43 51°14.511 2°51.989 83.4 12.4 81 8.5
2007-05-08 08:52:47 51°14.514 2°52.011 84.8 12.4 79 8.5
2007-05-08 08:52:53 51°14.519 2°52.043 82.8 12.6 76 8.6
2007-05-08 08:52:58 51°14.524 2°52.071 81.2 12.8 76 8.5
2007-05-08 08:53:03 51°14.529 2°52.097 78.5 12.5 73 8.5
2007-05-08 08:53:07 51°14.532 2°52.119 77.1 12.3 77 8.5
2007-05-08 08:53:12 51°14.536 2°52.145 78 12.2 78 8.5
2007-05-08 08:53:18 51°14.539 2°52.177 78.9 12.6 82 8.6
2007-05-08 08:53:23 51°14.543 2°52.206 82 13.1 79 8.5
2007-05-08 08:53:27 51°14.546 2°52.229 82.8 13.2 79 8.5
2007-05-08 08:53:32 51°14.548 2°52.257 81.4 13.1 80 8.5
2007-05-08 08:53:38 51°14.552 2°52.29 82.3 12.7 80 8.5
2007-05-08 08:53:43 51°14.555 2°52.317 81.9 12.1 82 8.5
2007-05-08 08:53:48 51°14.556 2°52.344 83.4 12.3 84 8.6
2007-05-08 08:53:52 51°14.558 2°52.367 86.3 13.1 84 8.5
2007-05-08 08:53:57 51°14.559 2°52.396 86.5 13.3 83 8.3
2007-05-08 08:54:02 51°14.561 2°52.425 87 12.9 85 8.4
2007-05-08 08:54:08 51°14.564 2°52.457 86.9 12.4 82 8.4
2007-05-08 08:54:12 51°14.565 2°52.479 85.6 12.1 86 8.5
2007-05-08 08:54:18 51°14.567 2°52.512 86 12.6 84 8.5
2007-05-08 08:54:22 51°14.569 2°52.534 87.8 12.7 81 8.4
2007-05-08 08:54:28 51°14.571 2°52.567 85.3 12.6 83 8.3
2007-05-08 08:54:32 51°14.574 2°52.589 86 12.8 79 8.2
2007-05-08 08:54:38 51°14.577 2°52.623 84.1 12.8 82 8.2
2007-05-08 08:54:42 51°14.579 2°52.645 83.1 12.9 82 8.3
2007-05-08 08:54:47 51°14.582 2°52.674 84.2 13 80 8.3
2007-05-08 08:54:52 51°14.586 2°52.701 83.5 12.6 80 8.4
2007-05-08 08:54:58 51°14.588 2°52.734 82.4 12.4 83 8.4
2007-05-08 08:55:03 51°14.59 2°52.761 84.1 12.6 83 8.3
2007-05-08 08:55:07 51°14.592 2°52.784 85.6 12.6 84 8.3
2007-05-08 08:55:12 51°14.594 2°52.811 86.5 12.5 83 8.3